createdAt,value
2018-06-14T00:00:32.786Z,1011.51
2018-06-14T00:01:41.431Z,1011.48
2018-06-14T00:02:50.069Z,1011.49
2018-06-14T00:03:58.975Z,1011.45
2018-06-14T00:05:07.877Z,1011.47
2018-06-14T00:06:16.530Z,1011.45
2018-06-14T00:07:25.164Z,1011.43
2018-06-14T00:08:34.077Z,1011.44
2018-06-14T00:09:42.979Z,1011.44
2018-06-14T00:10:51.630Z,1011.38
2018-06-14T00:12:00.531Z,1011.39
2018-06-14T00:13:09.177Z,1011.36
2018-06-14T00:14:17.820Z,1011.33
2018-06-14T00:15:26.476Z,1011.35
2018-06-14T00:16:35.112Z,1011.34
2018-06-14T00:17:43.752Z,1011.36
2018-06-14T00:18:52.393Z,1011.32
2018-06-14T00:20:01.039Z,1011.32
2018-06-14T00:21:09.693Z,1011.26
2018-06-14T00:22:18.332Z,1011.26
2018-06-14T00:23:26.984Z,1011.27
2018-06-14T00:24:35.616Z,1011.28
2018-06-14T00:25:44.269Z,1011.27
2018-06-14T00:26:52.905Z,1011.29
2018-06-14T00:28:01.555Z,1011.3
2018-06-14T00:29:10.184Z,1011.27
2018-06-14T00:30:18.840Z,1011.32
2018-06-14T00:31:27.476Z,1011.31
2018-06-14T00:32:36.122Z,1011.34
2018-06-14T00:33:44.758Z,1011.32
2018-06-14T00:34:53.405Z,1011.36
2018-06-14T00:36:02.048Z,1011.35
2018-06-14T00:37:10.958Z,1011.32
2018-06-14T00:38:19.868Z,1011.33
2018-06-14T00:39:28.504Z,1011.33
2018-06-14T00:40:37.151Z,1011.37
2018-06-14T00:41:45.790Z,1011.36
2018-06-14T00:42:54.445Z,1011.39
2018-06-14T00:44:03.339Z,1011.34
2018-06-14T00:45:11.988Z,1011.38
2018-06-14T00:46:20.625Z,1011.4
2018-06-14T00:47:29.278Z,1011.37
2018-06-14T00:48:37.914Z,1011.41
2018-06-14T00:49:46.557Z,1011.38
2018-06-14T00:50:55.200Z,1011.37
2018-06-14T00:52:03.848Z,1011.37
2018-06-14T00:53:13.026Z,1011.39
2018-06-14T00:54:21.669Z,1011.38
2018-06-14T00:55:30.308Z,1011.35
2018-06-14T00:56:38.949Z,1011.33
2018-06-14T00:57:47.603Z,1011.32
2018-06-14T00:58:56.250Z,1011.3
2018-06-14T01:00:04.888Z,1011.3
2018-06-14T01:01:13.791Z,1011.34
2018-06-14T01:02:22.441Z,1011.33
2018-06-14T01:03:31.342Z,1011.37
2018-06-14T01:04:39.984Z,1011.38
2018-06-14T01:05:48.621Z,1011.35
2018-06-14T01:06:57.531Z,1011.39
2018-06-14T01:08:06.172Z,1011.38
2018-06-14T01:09:14.814Z,1011.34
2018-06-14T01:10:23.454Z,1011.34
2018-06-14T01:11:32.103Z,1011.36
2018-06-14T01:12:40.740Z,1011.35
2018-06-14T01:13:49.393Z,1011.33
2018-06-14T01:14:58.038Z,1011.32
2018-06-14T01:16:06.675Z,1011.34
2018-06-14T01:17:15.324Z,1011.3
2018-06-14T01:18:24.225Z,1011.31
2018-06-14T01:19:32.872Z,1011.33
2018-06-14T01:20:41.510Z,1011.27
2018-06-14T01:21:50.152Z,1011.32
2018-06-14T01:22:58.796Z,1011.31
2018-06-14T01:24:07.448Z,1011.3
2018-06-14T01:25:16.349Z,1011.31
2018-06-14T01:26:24.996Z,1011.28
2018-06-14T01:27:33.638Z,1011.3
2018-06-14T01:28:42.337Z,1011.27
2018-06-14T01:29:50.925Z,1011.3
2018-06-14T01:30:59.568Z,1011.25
2018-06-14T01:32:08.471Z,1011.31
2018-06-14T01:33:17.111Z,1011.31
2018-06-14T01:34:26.018Z,1011.32
2018-06-14T01:35:34.659Z,1011.29
2018-06-14T01:36:43.566Z,1011.35
2018-06-14T01:37:52.202Z,1011.3
2018-06-14T01:39:00.850Z,1011.31
2018-06-14T01:40:09.492Z,1011.31
2018-06-14T01:41:18.135Z,1011.33
2018-06-14T01:42:26.774Z,1011.37
2018-06-14T01:43:35.469Z,1011.36
2018-06-14T01:44:44.065Z,1011.36
2018-06-14T01:45:52.710Z,1011.36
2018-06-14T01:47:01.614Z,1011.36
2018-06-14T01:48:10.261Z,1011.33
2018-06-14T01:49:18.903Z,1011.39
2018-06-14T01:50:27.546Z,1011.33
2018-06-14T01:51:36.447Z,1011.34
2018-06-14T01:52:45.096Z,1011.34
2018-06-14T01:53:53.736Z,1011.34
2018-06-14T01:55:02.381Z,1011.32
2018-06-14T01:56:11.284Z,1011.32
2018-06-14T01:57:19.927Z,1011.28
2018-06-14T01:58:28.569Z,1011.28
2018-06-14T01:59:37.208Z,1011.27
2018-06-14T02:00:45.844Z,1011.26
2018-06-14T02:01:54.493Z,1011.24
2018-06-14T02:03:03.134Z,1011.19
2018-06-14T02:04:11.781Z,1011.17
2018-06-14T02:05:20.416Z,1011.17
2018-06-14T02:06:29.063Z,1011.16
2018-06-14T02:07:37.704Z,1011.13
2018-06-14T02:08:46.347Z,1011.13
2018-06-14T02:09:54.993Z,1011.12
2018-06-14T02:11:03.628Z,1011.09
2018-06-14T02:12:12.272Z,1011.09
2018-06-14T02:13:20.914Z,1011.12
2018-06-14T02:14:29.823Z,1011.1
2018-06-14T02:15:38.461Z,1011.05
2018-06-14T02:16:47.103Z,1011.05
2018-06-14T02:17:55.748Z,1011.06
2018-06-14T02:19:04.397Z,1011.06
2018-06-14T02:20:13.038Z,1011.04
2018-06-14T02:21:21.950Z,1011
2018-06-14T02:22:30.854Z,1010.99
2018-06-14T02:23:39.503Z,1010.98
2018-06-14T02:24:48.405Z,1011.01
2018-06-14T02:25:57.048Z,1010.98
2018-06-14T02:27:05.684Z,1011.05
2018-06-14T02:28:14.593Z,1011.04
2018-06-14T02:29:23.237Z,1011.13
2018-06-14T02:30:31.882Z,1011.09
2018-06-14T02:31:40.528Z,1011.14
2018-06-14T02:32:49.168Z,1011.06
2018-06-14T02:33:57.813Z,1011.06
2018-06-14T02:35:06.461Z,1011.05
2018-06-14T02:36:15.102Z,1011.01
2018-06-14T02:37:24.014Z,1011.03
2018-06-14T02:38:32.662Z,1011.07
2018-06-14T02:39:41.564Z,1011.04
2018-06-14T02:40:50.483Z,1011.09
2018-06-14T02:41:59.385Z,1011.07
2018-06-14T02:43:08.292Z,1011.08
2018-06-14T02:44:16.939Z,1011.05
2018-06-14T02:45:25.856Z,1011.03
2018-06-14T02:46:34.761Z,1011.05
2018-06-14T02:47:43.403Z,1011.05
2018-06-14T02:48:52.048Z,1011.04
2018-06-14T02:50:00.954Z,1011.02
2018-06-14T02:51:09.612Z,1011.05
2018-06-14T02:52:18.507Z,1011.05
2018-06-14T02:53:27.419Z,1011.03
2018-06-14T02:54:36.319Z,1010.98
2018-06-14T02:55:44.974Z,1011.03
2018-06-14T02:56:54.138Z,1011.04
2018-06-14T02:58:02.789Z,1011.05
2018-06-14T02:59:11.956Z,1011.05
2018-06-14T03:00:20.657Z,1011.06
2018-06-14T03:01:29.501Z,1011.05
2018-06-14T03:02:38.696Z,1011.07
2018-06-14T03:03:47.483Z,1011.08
2018-06-14T03:04:56.128Z,1011.05
2018-06-14T03:06:04.781Z,1011.02
2018-06-14T03:07:13.421Z,1010.95
2018-06-14T03:08:22.067Z,1010.99
2018-06-14T03:09:30.725Z,1010.98
2018-06-14T03:10:39.649Z,1011
2018-06-14T03:11:48.285Z,1010.99
2018-06-14T03:12:56.933Z,1010.97
2018-06-14T03:14:05.567Z,1010.96
2018-06-14T03:15:14.219Z,1010.96
2018-06-14T03:16:22.861Z,1010.94
2018-06-14T03:17:31.774Z,1010.93
2018-06-14T03:18:40.411Z,1010.92
2018-06-14T03:19:49.059Z,1010.88
2018-06-14T03:20:57.707Z,1010.89
2018-06-14T03:22:06.351Z,1010.87
2018-06-14T03:23:14.997Z,1010.9
2018-06-14T03:24:23.627Z,1010.89
2018-06-14T03:25:32.539Z,1010.88
2018-06-14T03:26:41.179Z,1010.89
2018-06-14T03:27:49.829Z,1010.93
2018-06-14T03:28:58.463Z,1010.9
2018-06-14T03:30:07.110Z,1010.89
2018-06-14T03:31:15.759Z,1010.9
2018-06-14T03:32:24.683Z,1010.88
2018-06-14T03:33:33.315Z,1010.9
2018-06-14T03:34:41.962Z,1010.89
2018-06-14T03:35:50.601Z,1010.91
2018-06-14T03:36:59.255Z,1010.88
2018-06-14T03:38:08.186Z,1010.84
2018-06-14T03:39:16.824Z,1010.85
2018-06-14T03:40:25.730Z,1010.84
2018-06-14T03:41:34.632Z,1010.81
2018-06-14T03:42:43.549Z,1010.82
2018-06-14T03:43:52.186Z,1010.82
2018-06-14T03:45:00.834Z,1010.82
2018-06-14T03:46:09.467Z,1010.8
2018-06-14T03:47:18.119Z,1010.85
2018-06-14T03:48:26.760Z,1010.83
2018-06-14T03:49:35.921Z,1010.86
2018-06-14T03:50:44.560Z,1010.85
2018-06-14T03:51:53.219Z,1010.86
2018-06-14T03:53:01.850Z,1010.83
2018-06-14T03:54:10.500Z,1010.83
2018-06-14T03:55:19.400Z,1010.78
2018-06-14T03:56:28.046Z,1010.82
2018-06-14T03:57:36.978Z,1010.79
2018-06-14T03:58:45.889Z,1010.83
2018-06-14T03:59:54.536Z,1010.83
2018-06-14T04:01:03.174Z,1010.84
2018-06-14T04:02:11.818Z,1010.84
2018-06-14T04:03:20.460Z,1010.88
2018-06-14T04:04:29.106Z,1010.89
2018-06-14T04:05:38.007Z,1010.86
2018-06-14T04:06:46.652Z,1010.82
2018-06-14T04:07:55.562Z,1010.8
2018-06-14T04:09:04.209Z,1010.81
2018-06-14T04:10:12.895Z,1010.84
2018-06-14T04:11:21.496Z,1010.86
2018-06-14T04:12:30.136Z,1010.88
2018-06-14T04:13:38.781Z,1010.85
2018-06-14T04:14:47.421Z,1010.87
2018-06-14T04:15:56.064Z,1010.9
2018-06-14T04:17:04.709Z,1010.89
2018-06-14T04:18:13.348Z,1010.89
2018-06-14T04:19:21.996Z,1010.85
2018-06-14T04:20:30.741Z,1010.85
2018-06-14T04:21:39.289Z,1010.85
2018-06-14T04:22:47.933Z,1010.86
2018-06-14T04:23:56.581Z,1010.83
2018-06-14T04:25:05.225Z,1010.83
2018-06-14T04:26:13.869Z,1010.83
2018-06-14T04:27:23.052Z,1010.84
2018-06-14T04:28:31.682Z,1010.83
2018-06-14T04:29:40.322Z,1010.8
2018-06-14T04:30:48.969Z,1010.78
2018-06-14T04:31:57.607Z,1010.8
2018-06-14T04:33:06.255Z,1010.76
2018-06-14T04:34:15.157Z,1010.82
2018-06-14T04:35:23.804Z,1010.78
2018-06-14T04:36:32.445Z,1010.82
2018-06-14T04:37:41.083Z,1010.78
2018-06-14T04:38:49.990Z,1010.78
2018-06-14T04:39:58.632Z,1010.78
2018-06-14T04:41:07.281Z,1010.8
2018-06-14T04:42:15.925Z,1010.78
2018-06-14T04:43:24.831Z,1010.76
2018-06-14T04:44:33.473Z,1010.77
2018-06-14T04:45:42.126Z,1010.77
2018-06-14T04:46:51.079Z,1010.74
2018-06-14T04:47:59.725Z,1010.71
2018-06-14T04:49:08.371Z,1010.68
2018-06-14T04:50:17.022Z,1010.7
2018-06-14T04:51:25.665Z,1010.68
2018-06-14T04:52:34.566Z,1010.67
2018-06-14T04:53:43.208Z,1010.67
2018-06-14T04:54:52.107Z,1010.69
2018-06-14T04:56:00.761Z,1010.67
2018-06-14T04:57:09.400Z,1010.67
2018-06-14T04:58:18.317Z,1010.69
2018-06-14T04:59:26.951Z,1010.71
2018-06-14T05:00:35.865Z,1010.68
2018-06-14T05:01:44.511Z,1010.68
2018-06-14T05:02:53.161Z,1010.65
2018-06-14T05:04:01.797Z,1010.58
2018-06-14T05:05:10.451Z,1010.6
2018-06-14T05:06:19.094Z,1010.59
2018-06-14T05:07:27.740Z,1010.57
2018-06-14T05:08:36.373Z,1010.6
2018-06-14T05:09:45.554Z,1010.59
2018-06-14T05:10:54.200Z,1010.6
2018-06-14T05:12:03.114Z,1010.6
2018-06-14T05:13:11.764Z,1010.58
2018-06-14T05:14:20.399Z,1010.65
2018-06-14T05:15:29.048Z,1010.64
2018-06-14T05:16:37.687Z,1010.6
2018-06-14T05:17:46.347Z,1010.58
2018-06-14T05:18:54.975Z,1010.65
2018-06-14T05:20:03.889Z,1010.65
2018-06-14T05:21:12.792Z,1010.61
2018-06-14T05:22:21.441Z,1010.64
2018-06-14T05:23:30.101Z,1010.6
2018-06-14T05:24:38.725Z,1010.57
2018-06-14T05:25:47.366Z,1010.56
2018-06-14T05:26:56.021Z,1010.59
2018-06-14T05:28:04.663Z,1010.58
2018-06-14T05:29:13.303Z,1010.59
2018-06-14T05:30:21.944Z,1010.57
2018-06-14T05:31:30.585Z,1010.58
2018-06-14T05:32:39.503Z,1010.56
2018-06-14T05:33:48.142Z,1010.56
2018-06-14T05:34:56.791Z,1010.55
2018-06-14T05:36:05.439Z,1010.59
2018-06-14T05:37:14.352Z,1010.6
2018-06-14T05:38:22.994Z,1010.59
2018-06-14T05:39:31.902Z,1010.55
2018-06-14T05:40:40.537Z,1010.58
2018-06-14T05:41:49.190Z,1010.59
2018-06-14T05:42:57.833Z,1010.58
2018-06-14T05:44:06.738Z,1010.56
2018-06-14T05:45:15.666Z,1010.58
2018-06-14T05:46:24.311Z,1010.58
2018-06-14T05:47:33.216Z,1010.53
2018-06-14T05:48:41.858Z,1010.59
2018-06-14T05:49:50.502Z,1010.54
2018-06-14T05:50:59.156Z,1010.54
2018-06-14T05:52:08.060Z,1010.54
2018-06-14T05:53:16.972Z,1010.55
2018-06-14T05:54:25.871Z,1010.51
2018-06-14T05:55:34.525Z,1010.51
2018-06-14T05:56:43.165Z,1010.55
2018-06-14T05:57:51.815Z,1010.56
2018-06-14T05:59:00.450Z,1010.54
2018-06-14T06:00:09.371Z,1010.5
2018-06-14T06:01:18.012Z,1010.52
2018-06-14T06:02:26.674Z,1010.56
2018-06-14T06:03:35.298Z,1010.55
2018-06-14T06:04:43.944Z,1010.55
2018-06-14T06:05:52.593Z,1010.53
2018-06-14T06:07:01.240Z,1010.56
2018-06-14T06:08:09.886Z,1010.53
2018-06-14T06:09:18.523Z,1010.56
2018-06-14T06:10:27.177Z,1010.56
2018-06-14T06:11:35.816Z,1010.57
2018-06-14T06:12:44.468Z,1010.58
2018-06-14T06:13:53.104Z,1010.62
2018-06-14T06:15:02.018Z,1010.65
2018-06-14T06:16:10.930Z,1010.63
2018-06-14T06:17:19.585Z,1010.66
2018-06-14T06:18:28.220Z,1010.65
2018-06-14T06:19:36.872Z,1010.65
2018-06-14T06:20:45.513Z,1010.65
2018-06-14T06:21:54.163Z,1010.62
2018-06-14T06:23:02.806Z,1010.61
2018-06-14T06:24:11.445Z,1010.56
2018-06-14T06:25:20.089Z,1010.55
2018-06-14T06:26:28.812Z,1010.54
2018-06-14T06:27:37.390Z,1010.54
2018-06-14T06:28:46.302Z,1010.58
2018-06-14T06:29:54.951Z,1010.56
2018-06-14T06:31:03.588Z,1010.54
2018-06-14T06:32:12.241Z,1010.55
2018-06-14T06:33:20.912Z,1010.51
2018-06-14T06:34:29.539Z,1010.48
2018-06-14T06:35:38.696Z,1010.47
2018-06-14T06:36:47.623Z,1010.43
2018-06-14T06:37:56.267Z,1010.43
2018-06-14T06:39:04.916Z,1010.4
2018-06-14T06:40:13.818Z,1010.43
2018-06-14T06:41:22.462Z,1010.44
2018-06-14T06:42:31.112Z,1010.44
2018-06-14T06:43:39.762Z,1010.4
2018-06-14T06:44:48.408Z,1010.43
2018-06-14T06:45:57.050Z,1010.35
2018-06-14T06:47:05.701Z,1010.35
2018-06-14T06:48:14.348Z,1010.38
2018-06-14T06:49:22.995Z,1010.38
2018-06-14T06:50:31.637Z,1010.39
2018-06-14T06:51:40.282Z,1010.37
2018-06-14T06:52:48.931Z,1010.38
2018-06-14T06:53:57.579Z,1010.38
2018-06-14T06:55:06.772Z,1010.42
2018-06-14T06:56:15.420Z,1010.44
2018-06-14T06:57:24.068Z,1010.4
2018-06-14T06:58:32.718Z,1010.35
2018-06-14T06:59:41.639Z,1010.38
2018-06-14T07:00:50.286Z,1010.38
2018-06-14T07:01:58.930Z,1010.36
2018-06-14T07:03:07.574Z,1010.44
2018-06-14T07:04:16.224Z,1010.42
2018-06-14T07:05:24.880Z,1010.42
2018-06-14T07:06:33.911Z,1010.42
2018-06-14T07:07:42.695Z,1010.44
2018-06-14T07:08:51.350Z,1010.39
2018-06-14T07:09:59.995Z,1010.39
2018-06-14T07:11:08.643Z,1010.42
2018-06-14T07:12:17.287Z,1010.42
2018-06-14T07:13:25.937Z,1010.41
2018-06-14T07:14:34.581Z,1010.46
2018-06-14T07:15:43.229Z,1010.44
2018-06-14T07:16:51.870Z,1010.42
2018-06-14T07:18:00.535Z,1010.44
2018-06-14T07:19:09.446Z,1010.44
2018-06-14T07:20:18.094Z,1010.44
2018-06-14T07:21:26.813Z,1010.45
2018-06-14T07:22:35.386Z,1010.47
2018-06-14T07:23:44.035Z,1010.43
2018-06-14T07:24:52.945Z,1010.42
2018-06-14T07:26:01.595Z,1010.34
2018-06-14T07:27:10.239Z,1010.38
2018-06-14T07:28:18.884Z,1010.37
2018-06-14T07:29:27.797Z,1010.36
2018-06-14T07:30:36.706Z,1010.35
2018-06-14T07:31:45.618Z,1010.36
2018-06-14T07:32:54.266Z,1010.32
2018-06-14T07:34:02.908Z,1010.31
2018-06-14T07:35:11.558Z,1010.25
2018-06-14T07:36:20.202Z,1010.34
2018-06-14T07:37:29.376Z,1010.34
2018-06-14T07:38:38.024Z,1010.29
2018-06-14T07:39:46.674Z,1010.27
2018-06-14T07:40:55.326Z,1010.28
2018-06-14T07:42:03.973Z,1010.28
2018-06-14T07:43:12.621Z,1010.27
2018-06-14T07:44:21.551Z,1010.26
2018-06-14T07:45:30.209Z,1010.27
2018-06-14T07:46:39.129Z,1010.29
2018-06-14T07:47:47.771Z,1010.27
2018-06-14T07:48:56.413Z,1010.26
2018-06-14T07:50:05.066Z,1010.27
2018-06-14T07:51:13.713Z,1010.21
2018-06-14T07:52:22.360Z,1010.23
2018-06-14T07:53:31.002Z,1010.21
2018-06-14T07:54:39.649Z,1010.24
2018-06-14T07:55:48.297Z,1010.24
2018-06-14T07:56:56.948Z,1010.2
2018-06-14T07:58:05.860Z,1010.2
2018-06-14T07:59:14.509Z,1010.21
2018-06-14T08:00:23.151Z,1010.2
2018-06-14T08:01:31.799Z,1010.13
2018-06-14T08:02:40.449Z,1010.15
2018-06-14T08:03:49.355Z,1010.13
2018-06-14T08:04:58.264Z,1010.15
2018-06-14T08:06:06.913Z,1010.17
2018-06-14T08:07:16.102Z,1010.11
2018-06-14T08:08:24.740Z,1010.11
2018-06-14T08:09:33.390Z,1010.08
2018-06-14T08:10:42.036Z,1010.09
2018-06-14T08:11:50.948Z,1010.06
2018-06-14T08:12:59.622Z,1010.1
2018-06-14T08:14:08.270Z,1010.07
2018-06-14T08:15:16.916Z,1010.07
2018-06-14T08:16:25.561Z,1010.06
2018-06-14T08:17:34.209Z,1010.04
2018-06-14T08:18:43.126Z,1010.02
2018-06-14T08:19:51.773Z,1009.99
2018-06-14T08:21:00.417Z,1009.98
2018-06-14T08:22:09.070Z,1010.02
2018-06-14T08:23:17.717Z,1010.02
2018-06-14T08:24:26.363Z,1010.02
2018-06-14T08:25:35.272Z,1010.01
2018-06-14T08:26:43.925Z,1010
2018-06-14T08:27:52.568Z,1010
2018-06-14T08:29:01.218Z,1009.95
2018-06-14T08:30:09.859Z,1010
2018-06-14T08:31:18.779Z,1009.97
2018-06-14T08:32:27.432Z,1009.98
2018-06-14T08:33:36.081Z,1009.97
2018-06-14T08:34:44.994Z,1010.05
2018-06-14T08:35:53.899Z,1010.03
2018-06-14T08:37:02.547Z,1010.02
2018-06-14T08:38:11.194Z,1010.06
2018-06-14T08:39:19.845Z,1010.04
2018-06-14T08:40:28.486Z,1010
2018-06-14T08:41:37.137Z,1009.99
2018-06-14T08:42:45.782Z,1010.03
2018-06-14T08:43:54.442Z,1010.01
2018-06-14T08:45:03.081Z,1009.97
2018-06-14T08:46:12.002Z,1009.89
2018-06-14T08:47:20.646Z,1009.93
2018-06-14T08:48:29.305Z,1009.95
2018-06-14T08:49:38.239Z,1009.91
2018-06-14T08:50:46.880Z,1009.88
2018-06-14T08:51:55.525Z,1009.88
2018-06-14T08:53:04.170Z,1009.92
2018-06-14T08:54:12.834Z,1009.86
2018-06-14T08:55:21.736Z,1009.86
2018-06-14T08:56:30.388Z,1009.85
2018-06-14T08:57:39.025Z,1009.82
2018-06-14T08:58:47.679Z,1009.76
2018-06-14T08:59:56.323Z,1009.8
2018-06-14T09:01:04.982Z,1009.79
2018-06-14T09:02:13.618Z,1009.8
2018-06-14T09:03:22.285Z,1009.79
2018-06-14T09:04:30.921Z,1009.82
2018-06-14T09:05:39.840Z,1009.81
2018-06-14T09:06:48.480Z,1009.84
2018-06-14T09:07:57.392Z,1009.79
2018-06-14T09:09:06.318Z,1009.77
2018-06-14T09:10:15.236Z,1009.73
2018-06-14T09:11:23.885Z,1009.76
2018-06-14T09:12:32.526Z,1009.73
2018-06-14T09:13:41.176Z,1009.7
2018-06-14T09:14:49.821Z,1009.67
2018-06-14T09:15:58.477Z,1009.72
2018-06-14T09:17:07.118Z,1009.71
2018-06-14T09:18:15.769Z,1009.68
2018-06-14T09:19:24.415Z,1009.7
2018-06-14T09:20:33.077Z,1009.69
2018-06-14T09:21:41.710Z,1009.66
2018-06-14T09:22:50.360Z,1009.68
2018-06-14T09:23:59.005Z,1009.65
2018-06-14T09:25:07.664Z,1009.66
2018-06-14T09:26:16.309Z,1009.71
2018-06-14T09:27:25.216Z,1009.61
2018-06-14T09:28:33.865Z,1009.63
2018-06-14T09:29:42.512Z,1009.61
2018-06-14T09:30:51.173Z,1009.68
2018-06-14T09:32:00.081Z,1009.65
2018-06-14T09:33:08.734Z,1009.69
2018-06-14T09:34:17.371Z,1009.73
2018-06-14T09:35:26.028Z,1009.66
2018-06-14T09:36:34.672Z,1009.74
2018-06-14T09:37:43.329Z,1009.69
2018-06-14T09:38:51.978Z,1009.63
2018-06-14T09:40:00.616Z,1009.62
2018-06-14T09:41:09.269Z,1009.68
2018-06-14T09:42:17.914Z,1009.58
2018-06-14T09:43:26.574Z,1009.57
2018-06-14T09:44:35.220Z,1009.59
2018-06-14T09:45:43.867Z,1009.57
2018-06-14T09:46:52.515Z,1009.56
2018-06-14T09:48:01.165Z,1009.55
2018-06-14T09:49:09.825Z,1009.55
2018-06-14T09:50:18.757Z,1009.53
2018-06-14T09:51:27.719Z,1009.51
2018-06-14T09:52:36.357Z,1009.5
2018-06-14T09:53:45.017Z,1009.52
2018-06-14T09:54:53.703Z,1009.64
2018-06-14T09:56:02.377Z,1009.56
2018-06-14T09:57:11.017Z,1009.58
2018-06-14T09:58:19.770Z,1009.6
2018-06-14T09:59:28.695Z,1009.58
2018-06-14T10:00:37.345Z,1009.52
2018-06-14T10:01:45.982Z,1009.58
2018-06-14T10:02:55.116Z,1009.59
2018-06-14T10:04:03.772Z,1009.66
2018-06-14T10:05:12.423Z,1009.68
2018-06-14T10:06:21.076Z,1009.63
2018-06-14T10:07:30.051Z,1009.64
2018-06-14T10:08:38.704Z,1009.65
2018-06-14T10:09:47.358Z,1009.66
2018-06-14T10:10:56.041Z,1009.71
2018-06-14T10:12:04.692Z,1009.67
2018-06-14T10:13:13.349Z,1009.71
2018-06-14T10:14:22.254Z,1009.66
2018-06-14T10:15:30.915Z,1009.69
2018-06-14T10:16:39.553Z,1009.72
2018-06-14T10:17:48.205Z,1009.66
2018-06-14T10:18:56.852Z,1009.71
2018-06-14T10:20:05.511Z,1009.72
2018-06-14T10:21:14.154Z,1009.79
2018-06-14T10:22:23.230Z,1009.79
2018-06-14T10:23:31.879Z,1009.83
2018-06-14T10:24:40.526Z,1009.82
2018-06-14T10:25:49.187Z,1009.79
2018-06-14T10:26:57.830Z,1009.76
2018-06-14T10:28:06.486Z,1009.73
2018-06-14T10:29:15.126Z,1009.73
2018-06-14T10:30:23.784Z,1009.73
2018-06-14T10:31:32.694Z,1009.68
2018-06-14T10:32:41.349Z,1009.71
2018-06-14T10:33:49.987Z,1009.73
2018-06-14T10:34:58.645Z,1009.75
2018-06-14T10:36:07.295Z,1009.72
2018-06-14T10:37:15.966Z,1009.75
2018-06-14T10:38:24.592Z,1009.77
2018-06-14T10:39:33.247Z,1009.71
2018-06-14T10:40:41.898Z,1009.81
2018-06-14T10:41:50.571Z,1009.76
2018-06-14T10:42:59.204Z,1009.75
2018-06-14T10:44:08.110Z,1009.8
2018-06-14T10:45:16.765Z,1009.75
2018-06-14T10:46:25.418Z,1009.72
2018-06-14T10:47:34.069Z,1009.71
2018-06-14T10:48:42.715Z,1009.72
2018-06-14T10:49:51.366Z,1009.69
2018-06-14T10:51:00.014Z,1009.7
2018-06-14T10:52:08.669Z,1009.67
2018-06-14T10:53:17.315Z,1009.61
2018-06-14T10:54:25.967Z,1009.61
2018-06-14T10:55:34.615Z,1009.59
2018-06-14T10:56:43.271Z,1009.54
2018-06-14T10:57:51.918Z,1009.53
2018-06-14T10:59:00.569Z,1009.53
2018-06-14T11:00:09.213Z,1009.49
2018-06-14T11:01:17.860Z,1009.62
2018-06-14T11:02:26.523Z,1009.54
2018-06-14T11:03:35.173Z,1009.52
2018-06-14T11:04:43.823Z,1009.45
2018-06-14T11:05:52.732Z,1009.44
2018-06-14T11:07:01.383Z,1009.44
2018-06-14T11:08:10.031Z,1009.51
2018-06-14T11:09:18.678Z,1009.43
2018-06-14T11:10:27.324Z,1009.43
2018-06-14T11:11:35.978Z,1009.39
2018-06-14T11:12:44.631Z,1009.39
2018-06-14T11:13:53.281Z,1009.38
2018-06-14T11:15:02.452Z,1009.41
2018-06-14T11:16:11.376Z,1009.44
2018-06-14T11:17:20.295Z,1009.35
2018-06-14T11:18:28.947Z,1009.34
2018-06-14T11:19:37.600Z,1009.37
2018-06-14T11:20:46.248Z,1009.39
2018-06-14T11:21:54.895Z,1009.39
2018-06-14T11:23:03.549Z,1009.28
2018-06-14T11:24:12.205Z,1009.36
2018-06-14T11:25:20.850Z,1009.3
2018-06-14T11:26:29.502Z,1009.33
2018-06-14T11:27:38.155Z,1009.25
2018-06-14T11:28:46.810Z,1009.33
2018-06-14T11:29:55.507Z,1009.34
2018-06-14T11:31:04.110Z,1009.3
2018-06-14T11:32:12.761Z,1009.24
2018-06-14T11:33:21.417Z,1009.29
2018-06-14T11:34:30.068Z,1009.26
2018-06-14T11:35:38.719Z,1009.32
2018-06-14T11:36:47.366Z,1009.27
2018-06-14T11:37:56.016Z,1009.33
2018-06-14T11:39:04.679Z,1009.27
2018-06-14T11:40:13.586Z,1009.27
2018-06-14T11:41:22.241Z,1009.34
2018-06-14T11:42:30.883Z,1009.3
2018-06-14T11:43:39.543Z,1009.28
2018-06-14T11:44:48.189Z,1009.28
2018-06-14T11:45:57.105Z,1009.27
2018-06-14T11:47:05.747Z,1009.27
2018-06-14T11:48:14.452Z,1009.28
2018-06-14T11:49:23.057Z,1009.29
2018-06-14T11:50:31.711Z,1009.31
2018-06-14T11:51:40.353Z,1009.21
2018-06-14T11:52:49.008Z,1009.27
2018-06-14T11:53:58.200Z,1009.34
2018-06-14T11:55:06.857Z,1009.28
2018-06-14T11:56:15.783Z,1009.21
2018-06-14T11:57:24.689Z,1009.25
2018-06-14T11:58:33.345Z,1009.25
2018-06-14T11:59:41.993Z,1009.18
2018-06-14T12:00:50.657Z,1009.22
2018-06-14T12:01:59.561Z,1009.18
2018-06-14T12:03:08.217Z,1009.2
2018-06-14T12:04:16.864Z,1009.21
2018-06-14T12:05:25.525Z,1009.16
2018-06-14T12:06:34.436Z,1009.14
2018-06-14T12:07:43.089Z,1009.08
2018-06-14T12:08:51.742Z,1009.02
2018-06-14T12:10:00.668Z,1009.06
2018-06-14T12:11:09.315Z,1009.04
2018-06-14T12:12:18.496Z,1009.06
2018-06-14T12:13:27.149Z,1008.97
2018-06-14T12:14:35.803Z,1009.05
2018-06-14T12:15:44.732Z,1008.98
2018-06-14T12:16:53.379Z,1008.95
2018-06-14T12:18:02.040Z,1008.91
2018-06-14T12:19:10.679Z,1008.9
2018-06-14T12:20:19.600Z,1008.9
2018-06-14T12:21:28.313Z,1008.88
2018-06-14T12:22:36.906Z,1008.8
2018-06-14T12:23:45.546Z,1008.82
2018-06-14T12:24:54.210Z,1008.81
2018-06-14T12:26:03.123Z,1008.89
2018-06-14T12:27:11.780Z,1008.88
2018-06-14T12:28:20.688Z,1008.94
2018-06-14T12:29:29.344Z,1008.94
2018-06-14T12:30:38.006Z,1008.93
2018-06-14T12:31:46.699Z,1008.86
2018-06-14T12:32:55.315Z,1008.87
2018-06-14T12:34:03.957Z,1008.87
2018-06-14T12:35:12.614Z,1008.83
2018-06-14T12:36:21.273Z,1008.85
2018-06-14T12:37:30.191Z,1008.83
2018-06-14T12:38:38.838Z,1008.77
2018-06-14T12:39:47.753Z,1008.81
2018-06-14T12:40:56.408Z,1008.8
2018-06-14T12:42:05.066Z,1008.86
2018-06-14T12:43:13.718Z,1008.82
2018-06-14T12:44:22.379Z,1008.83
2018-06-14T12:45:31.029Z,1008.87
2018-06-14T12:46:39.691Z,1008.84
2018-06-14T12:47:48.334Z,1008.85
2018-06-14T12:48:56.987Z,1008.8
2018-06-14T12:50:05.641Z,1008.77
2018-06-14T12:51:14.290Z,1008.76
2018-06-14T12:52:22.954Z,1008.75
2018-06-14T12:53:32.022Z,1008.74
2018-06-14T12:54:40.681Z,1008.74
2018-06-14T12:55:49.332Z,1008.75
2018-06-14T12:56:57.993Z,1008.75
2018-06-14T12:58:06.645Z,1008.76
2018-06-14T12:59:15.298Z,1008.71
2018-06-14T13:00:23.946Z,1008.71
2018-06-14T13:01:32.869Z,1008.76
2018-06-14T13:02:41.520Z,1008.7
2018-06-14T13:03:50.175Z,1008.72
2018-06-14T13:04:58.825Z,1008.69
2018-06-14T13:06:07.482Z,1008.67
2018-06-14T13:07:16.136Z,1008.64
2018-06-14T13:08:25.071Z,1008.72
2018-06-14T13:09:33.751Z,1008.72
2018-06-14T13:10:42.403Z,1008.71
2018-06-14T13:11:51.053Z,1008.68
2018-06-14T13:12:59.805Z,1008.69
2018-06-14T13:14:08.506Z,1008.68
2018-06-14T13:15:17.117Z,1008.67
2018-06-14T13:16:25.766Z,1008.67
2018-06-14T13:17:34.419Z,1008.67
2018-06-14T13:18:43.075Z,1008.63
2018-06-14T13:19:51.723Z,1008.61
2018-06-14T13:21:00.655Z,1008.61
2018-06-14T13:22:09.566Z,1008.62
2018-06-14T13:23:18.224Z,1008.67
2018-06-14T13:24:26.872Z,1008.6
2018-06-14T13:25:35.616Z,1008.59
2018-06-14T13:26:44.172Z,1008.56
2018-06-14T13:27:52.824Z,1008.58
2018-06-14T13:29:01.481Z,1008.57
2018-06-14T13:30:10.135Z,1008.65
2018-06-14T13:31:18.787Z,1008.55
2018-06-14T13:32:27.435Z,1008.6
2018-06-14T13:33:36.360Z,1008.59
2018-06-14T13:34:45.541Z,1008.5
2018-06-14T13:35:54.245Z,1008.51
2018-06-14T13:37:02.852Z,1008.51
2018-06-14T13:38:11.500Z,1008.49
2018-06-14T13:39:20.157Z,1008.5
2018-06-14T13:40:28.802Z,1008.51
2018-06-14T13:41:37.465Z,1008.46
2018-06-14T13:42:46.128Z,1008.48
2018-06-14T13:43:55.099Z,1008.43
2018-06-14T13:45:04.275Z,1008.51
2018-06-14T13:46:13.186Z,1008.49
2018-06-14T13:47:21.847Z,1008.53
2018-06-14T13:48:30.811Z,1008.52
2018-06-14T13:49:39.467Z,1008.51
2018-06-14T13:50:48.111Z,1008.5
2018-06-14T13:51:56.766Z,1008.47
2018-06-14T13:53:05.680Z,1008.44
2018-06-14T13:54:14.332Z,1008.42